Time;durP1;ratioP1;P1;durP2;ratioP2;P2;SDS_P1;SDS_P2;PMS_P1;PMS_P2;Temp;Humidity;BMP_temperature;BMP_pressure;BME280_temperature;BME280_humidity;BME280_pressure;Samples;Min_cycle;Max_cycle;Signal;HPM_P1;HPM_P2
2021/06/09 00:01:23;;;;;;;89.65;38.53;;;;;;;-139.48;100.00;61774.03;5074314;28;20048;-69
2021/06/09 00:04:07;;;;;;;81.05;41.53;;;;;;;-139.48;100.00;61774.03;5074498;28;20043;-69
2021/06/09 00:06:51;;;;;;;60.95;35.47;;;;;;;-139.48;100.00;61774.03;5074209;28;20055;-70
2021/06/09 00:09:35;;;;;;;64.57;35.45;;;;;;;-139.48;100.00;61774.03;5074206;28;20455;-70
2021/06/09 00:12:19;;;;;;;74.93;34.50;;;;;;;-139.48;100.00;61774.03;5074332;28;20074;-70
2021/06/09 00:15:06;;;;;;;55.10;33.10;;;;;;;-139.48;100.00;61774.03;5074409;28;20113;-70
2021/06/09 00:17:50;;;;;;;69.28;38.40;;;;;;;-139.48;100.00;61774.03;5074148;28;20055;-70
2021/06/09 00:20:34;;;;;;;42.92;28.67;;;;;;;-139.48;100.00;61774.03;5074541;28;20203;-70
2021/06/09 00:23:20;;;;;;;36.63;28.13;;;;;;;-139.48;100.00;61774.03;5074155;28;20086;-69
2021/06/09 00:26:05;;;;;;;44.97;31.27;;;;;;;-139.48;100.00;61774.03;5074039;28;20201;-70
2021/06/09 00:28:50;;;;;;;33.63;26.45;;;;;;;-139.48;100.00;61774.03;5074128;28;20047;-70
2021/06/09 00:31:34;;;;;;;49.13;29.92;;;;;;;-139.48;100.00;61774.03;5075244;28;20059;-70
2021/06/09 00:34:18;;;;;;;77.28;35.90;;;;;;;-139.48;100.00;61774.03;5074708;28;20120;-70
2021/06/09 00:37:02;;;;;;;75.78;35.60;;;;;;;-139.48;100.00;61774.03;5073932;28;20124;-70
2021/06/09 00:39:46;;;;;;;63.00;36.35;;;;;;;-139.48;100.00;61774.03;5073487;28;20055;-70
2021/06/09 00:42:30;;;;;;;50.17;32.75;;;;;;;-139.48;100.00;61774.03;5073651;28;20060;-70
2021/06/09 00:45:15;;;;;;;46.80;31.48;;;;;;;-139.48;100.00;61774.03;5073761;28;20043;-69
2021/06/09 00:47:59;;;;;;;56.78;33.03;;;;;;;-139.48;100.00;61774.03;5073410;28;20060;-70
2021/06/09 00:50:43;;;;;;;72.75;35.70;;;;;;;-139.48;100.00;61774.03;5073309;28;20409;-70
2021/06/09 00:53:28;;;;;;;72.78;37.70;;;;;;;-139.48;100.00;61774.03;5073597;28;20106;-69
2021/06/09 00:56:13;;;;;;;72.78;36.42;;;;;;;-139.48;100.00;61774.03;5073291;28;20127;-70
2021/06/09 00:58:57;;;;;;;67.25;34.55;;;;;;;-139.48;100.00;61774.03;5073481;28;20051;-70
2021/06/09 01:01:41;;;;;;;55.78;34.22;;;;;;;-139.48;100.00;61774.03;5074051;28;20125;-70
2021/06/09 01:04:25;;;;;;;50.42;31.30;;;;;;;-139.48;100.00;61774.03;5073334;28;20043;-70
2021/06/09 01:07:10;;;;;;;64.35;32.78;;;;;;;-139.48;100.00;61774.03;5073361;28;20055;-70
2021/06/09 01:09:54;;;;;;;69.47;33.80;;;;;;;-139.48;100.00;61774.03;5073250;28;20087;-69
2021/06/09 01:12:39;;;;;;;51.22;29.48;;;;;;;-139.48;100.00;61774.03;5072869;28;20511;-70
2021/06/09 01:15:23;;;;;;;50.53;31.33;;;;;;;-139.48;100.00;61774.03;5073133;28;20048;-70
2021/06/09 01:18:08;;;;;;;37.05;27.70;;;;;;;-139.48;100.00;61774.03;5072698;28;20090;-70
2021/06/09 01:20:53;;;;;;;43.47;28.80;;;;;;;-139.48;100.00;61774.03;5072821;28;20044;-70
2021/06/09 01:23:37;;;;;;;52.80;31.83;;;;;;;-139.48;100.00;61774.03;5072953;28;20105;-69
2021/06/09 01:26:24;;;;;;;60.20;33.58;;;;;;;-139.48;100.00;61774.03;5073188;28;20052;-70
2021/06/09 01:29:09;;;;;;;69.72;36.88;;;;;;;-139.48;100.00;61774.03;5072618;28;20051;-70
2021/06/09 01:31:53;;;;;;;76.97;39.60;;;;;;;-139.48;100.00;61774.03;5072683;28;20048;-70
2021/06/09 01:34:37;;;;;;;53.17;32.55;;;;;;;-139.48;100.00;61774.03;5073104;28;20051;-70
2021/06/09 01:37:21;;;;;;;52.08;31.52;;;;;;;-139.48;100.00;61774.03;5072879;28;20121;-70
2021/06/09 01:40:08;;;;;;;50.05;30.25;;;;;;;-139.48;100.00;61774.03;5072787;28;20050;-70
2021/06/09 01:42:53;;;;;;;54.60;30.88;;;;;;;-139.48;100.00;61774.03;5058132;28;20051;-70
2021/06/09 01:45:38;;;;;;;51.20;29.52;;;;;;;-139.48;100.00;61774.03;5058339;28;20059;-70
2021/06/09 01:48:22;;;;;;;76.05;34.15;;;;;;;-139.48;100.00;61774.03;5072631;28;20108;-70
2021/06/09 01:51:06;;;;;;;68.38;31.15;;;;;;;-139.48;100.00;61774.03;5072536;28;20052;-70
2021/06/09 01:53:51;;;;;;;40.97;27.17;;;;;;;-139.48;100.00;61774.03;5072628;28;20043;-70
2021/06/09 01:56:35;;;;;;;72.32;34.50;;;;;;;-139.48;100.00;61774.03;5072247;28;20127;-70
2021/06/09 01:59:20;;;;;;;65.93;32.05;;;;;;;-139.48;100.00;61774.03;5072495;28;20066;-70
2021/06/09 02:02:04;;;;;;;84.20;34.33;;;;;;;-139.48;100.00;61774.03;5072106;28;20047;-70
2021/06/09 02:04:48;;;;;;;62.53;31.60;;;;;;;-139.48;100.00;61774.03;5072392;28;20040;-70
2021/06/09 02:07:42;;;;;;;55.40;31.25;;;;;;;-139.48;100.00;61774.03;5072187;28;20147;-70
2021/06/09 02:10:27;;;;;;;58.40;32.45;;;;;;;-139.48;100.00;61774.03;5073394;28;20051;-70
2021/06/09 02:13:15;;;;;;;74.75;34.85;;;;;;;-139.48;100.00;61774.03;5072389;28;20047;-70
2021/06/09 02:16:00;;;;;;;86.07;39.88;;;;;;;-139.48;100.00;61774.03;5073328;28;20052;-70
2021/06/09 02:18:44;;;;;;;74.20;38.10;;;;;;;-139.48;100.00;61774.03;5072000;28;20516;-70
2021/06/09 02:21:28;;;;;;;67.57;36.53;;;;;;;-139.48;100.00;61774.03;5072213;28;20047;-70
2021/06/09 02:24:12;;;;;;;80.07;37.70;;;;;;;-139.48;100.00;61774.03;5072196;28;20052;-69
2021/06/09 02:26:57;;;;;;;65.85;38.33;;;;;;;-139.48;100.00;61774.03;5072225;28;20083;-70
2021/06/09 02:29:40;;;;;;;55.63;35.22;;;;;;;-139.48;100.00;61774.03;5073805;28;20090;-70
2021/06/09 02:32:25;;;;;;;45.90;32.15;;;;;;;-139.48;100.00;61774.03;5076491;28;20044;-69
2021/06/09 02:35:19;;;;;;;49.33;34.97;;;;;;;-139.48;100.00;61774.03;5076246;28;20047;-69
2021/06/09 02:38:03;;;;;;;;;;;;;;;-139.48;100.00;61774.03;5076570;28;20135;-70
2021/06/09 02:40:50;;;;;;;49.88;30.13;;;;;;;-139.48;100.00;61774.03;5075979;28;20285;-70
2021/06/09 02:43:34;;;;;;;53.58;30.63;;;;;;;-139.48;100.00;61774.03;5076208;28;20097;-70
2021/06/09 02:46:27;;;;;;;57.03;29.63;;;;;;;-139.48;100.00;61774.03;5076240;28;20110;-70
2021/06/09 02:49:13;;;;;;;94.00;37.08;;;;;;;-139.48;100.00;61774.03;5076967;28;20412;-70
2021/06/09 02:52:07;;;;;;;56.50;30.85;;;;;;;-139.48;100.00;61774.03;5075721;28;20130;-70
2021/06/09 02:55:15;;;;;;;62.05;33.60;;;;;;;-139.48;100.00;61774.03;5075785;28;20040;-70
2021/06/09 02:58:13;;;;;;;62.70;37.25;;;;;;;-139.48;100.00;61774.03;5075555;28;20051;-70
2021/06/09 03:01:10;;;;;;;54.75;34.75;;;;;;;-139.48;100.00;61774.03;5075683;28;20098;-70
2021/06/09 03:04:12;;;;;;;66.25;38.53;;;;;;;-139.48;100.00;61774.03;5075597;28;20397;-71
2021/06/09 03:07:03;;;;;;;73.90;38.83;;;;;;;-139.48;100.00;61774.03;5076884;28;20140;-70
2021/06/09 03:10:06;;;;;;;88.40;44.65;;;;;;;-139.48;100.00;61774.03;5075537;28;20105;-69
2021/06/09 03:13:06;;;;;;;87.70;45.22;;;;;;;-139.48;100.00;61774.03;5076157;28;20051;-70
2021/06/09 03:16:10;;;;;;;90.35;44.38;;;;;;;-139.48;100.00;61774.03;5075440;28;20063;-69
2021/06/09 03:19:02;;;;;;;85.55;41.22;;;;;;;-139.48;100.00;61774.03;5075462;28;20044;-70
2021/06/09 03:21:57;;;;;;;69.70;34.50;;;;;;;-139.48;100.00;61774.03;5075233;28;20101;-70
2021/06/09 03:24:43;;;;;;;61.17;32.88;;;;;;;-139.48;100.00;61774.03;5075235;28;20094;-69
2021/06/09 03:27:47;;;;;;;83.95;39.17;;;;;;;-139.48;100.00;61774.03;5074992;28;20059;-70
2021/06/09 03:30:32;;;;;;;64.47;34.22;;;;;;;-139.48;100.00;61774.03;5075151;28;20044;-70
2021/06/09 03:33:17;;;;;;;73.70;39.50;;;;;;;-139.48;100.00;61774.03;5074934;28;20083;-70
2021/06/09 03:36:06;;;;;;;85.25;43.97;;;;;;;-139.48;100.00;61774.03;5061177;28;20048;-69
2021/06/09 03:38:59;;;;;;;75.97;41.80;;;;;;;-139.48;100.00;61774.03;5075044;28;20125;-70
2021/06/09 03:41:48;;;;;;;72.70;38.40;;;;;;;-139.48;100.00;61774.03;5075468;28;20122;-70
2021/06/09 03:44:40;;;;;;;89.38;40.30;;;;;;;-139.48;100.00;61774.03;5074997;28;20123;-70
2021/06/09 03:47:25;;;;;;;84.90;40.25;;;;;;;-139.48;100.00;61774.03;5060900;28;20072;-70
2021/06/09 03:50:10;;;;;;;75.63;38.65;;;;;;;-139.48;100.00;61774.03;5074600;28;20122;-70
2021/06/09 03:53:02;;;;;;;75.75;38.38;;;;;;;-139.48;100.00;61774.03;5074712;28;20051;-68
2021/06/09 03:55:47;;;;;;;80.38;38.20;;;;;;;-139.48;100.00;61774.03;5074750;28;20090;-70
2021/06/09 03:58:33;;;;;;;86.43;36.15;;;;;;;-139.48;100.00;61774.03;5074704;28;20573;-70
2021/06/09 04:01:18;;;;;;;66.38;35.10;;;;;;;-139.48;100.00;61774.03;5074305;28;20094;-69
2021/06/09 04:04:04;;;;;;;83.13;38.17;;;;;;;-139.48;100.00;61774.03;5074556;28;20047;-69
2021/06/09 04:06:52;;;;;;;57.25;31.42;;;;;;;-139.48;100.00;61774.03;5060338;28;20055;-70
2021/06/09 04:09:38;;;;;;;73.45;37.28;;;;;;;-139.48;100.00;61774.03;5074519;28;20051;-70
2021/06/09 04:12:23;;;;;;;71.57;39.22;;;;;;;-139.48;100.00;61774.03;5074137;28;20109;-70
2021/06/09 04:15:10;;;;;;;96.80;42.42;;;;;;;-139.48;100.00;61774.03;5074094;28;20417;-70
2021/06/09 04:17:55;;;;;;;75.72;37.50;;;;;;;-139.48;100.00;61774.03;5074316;28;20051;-70
2021/06/09 04:20:40;;;;;;;78.25;37.00;;;;;;;-139.48;100.00;61774.03;5074220;28;20180;-71
2021/06/09 04:23:24;;;;;;;64.97;34.65;;;;;;;-139.48;100.00;61774.03;5074103;28;20098;-68
2021/06/09 04:26:12;;;;;;;70.72;34.75;;;;;;;-139.48;100.00;61774.03;5074711;28;20128;-71
2021/06/09 04:28:57;;;;;;;58.00;33.70;;;;;;;-139.48;100.00;61774.03;5074102;28;20093;-70
2021/06/09 04:31:41;;;;;;;80.22;39.13;;;;;;;-139.48;100.00;61774.03;5073925;28;20055;-70
2021/06/09 04:34:25;;;;;;;67.38;34.35;;;;;;;-139.48;100.00;61774.03;5074046;28;20044;-69
2021/06/09 04:37:09;;;;;;;65.55;34.95;;;;;;;-139.48;100.00;61774.03;5074131;28;20047;-70
2021/06/09 04:39:53;;;;;;;64.85;34.17;;;;;;;-139.48;100.00;61774.03;5073759;28;20101;-69
2021/06/09 04:42:37;;;;;;;75.78;38.17;;;;;;;-139.48;100.00;61774.03;5073651;28;20048;-70
2021/06/09 04:45:23;;;;;;;64.68;38.60;;;;;;;-139.48;100.00;61774.03;5073747;28;20051;-70
2021/06/09 04:48:11;;;;;;;69.70;36.33;;;;;;;-139.48;100.00;61774.03;5073710;28;20106;-69
2021/06/09 04:50:55;;;;;;;60.60;34.13;;;;;;;-139.48;100.00;61774.03;5073223;28;20678;-70
2021/06/09 04:53:40;;;;;;;77.25;38.53;;;;;;;-139.48;100.00;61774.03;5072536;28;20051;-70
2021/06/09 04:56:24;;;;;;;60.25;34.42;;;;;;;-139.48;100.00;61774.03;5073458;28;20102;-68
2021/06/09 04:59:08;;;;;;;75.40;38.10;;;;;;;-139.48;100.00;61774.03;5073421;28;20094;-70
2021/06/09 05:01:52;;;;;;;66.38;34.97;;;;;;;-139.48;100.00;61774.03;5073313;28;20051;-70
2021/06/09 05:04:36;;;;;;;59.33;34.33;;;;;;;-139.48;100.00;61774.03;5074016;28;20118;-70
2021/06/09 05:07:19;;;;;;;46.58;30.60;;;;;;;-139.48;100.00;61774.03;5073557;28;20055;-71
2021/06/09 05:10:04;;;;;;;43.42;29.27;;;;;;;-139.48;100.00;61774.03;5073554;28;20043;-70
2021/06/09 05:12:55;;;;;;;44.72;31.13;;;;;;;-139.48;100.00;61774.03;5072834;28;20051;-70
2021/06/09 05:15:41;;;;;;;45.97;32.78;;;;;;;-139.48;100.00;61774.03;5073108;28;20047;-70
2021/06/09 05:18:27;;;;;;;43.47;31.80;;;;;;;-139.48;100.00;61774.03;5058667;28;20051;-70
2021/06/09 05:21:12;;;;;;;47.03;31.67;;;;;;;-139.48;100.00;61774.03;5074191;28;20050;-70
2021/06/09 05:23:56;;;;;;;37.65;29.65;;;;;;;-139.48;100.00;61774.03;5072891;28;20047;-70
2021/06/09 05:26:40;;;;;;;43.60;30.83;;;;;;;-139.48;100.00;61774.03;5072782;28;20056;-70
2021/06/09 05:29:25;;;;;;;40.92;32.22;;;;;;;-139.48;100.00;61774.03;5072895;28;20417;-70
2021/06/09 05:32:11;;;;;;;46.28;34.30;;;;;;;-139.48;100.00;61774.03;5072588;28;20471;-70
2021/06/09 05:34:57;;;;;;;44.92;34.17;;;;;;;-139.48;100.00;61774.03;5072831;28;20085;-70
2021/06/09 05:37:41;;;;;;;44.58;33.20;;;;;;;-139.48;100.00;61774.03;5072487;28;20050;-70
2021/06/09 05:40:25;;;;;;;46.05;34.78;;;;;;;-139.48;100.00;61774.03;5072066;28;20047;-70
2021/06/09 05:43:10;;;;;;;39.58;31.80;;;;;;;-139.48;100.00;61774.03;5072033;28;20349;-70
2021/06/09 05:45:55;;;;;;;50.08;33.38;;;;;;;-139.48;100.00;61774.03;5071844;28;20097;-69
2021/06/09 05:48:44;;;;;;;47.05;33.22;;;;;;;-139.48;100.00;61774.03;5072287;28;20047;-71
2021/06/09 05:51:27;;;;;;;45.95;34.88;;;;;;;-139.48;100.00;61774.03;5071588;28;20051;-70
2021/06/09 05:54:11;;;;;;;51.13;36.38;;;;;;;-139.48;100.00;61774.03;5071850;28;20075;-70
2021/06/09 05:56:55;;;;;;;51.20;36.10;;;;;;;-139.48;100.00;61774.03;5071621;28;20086;-70
2021/06/09 05:59:40;;;;;;;48.58;36.40;;;;;;;-139.48;100.00;61774.03;5071977;28;20381;-70
2021/06/09 06:02:27;;;;;;;53.10;37.55;;;;;;;-139.48;100.00;61774.03;5071529;28;20051;-70
2021/06/09 06:05:12;;;;;;;46.00;34.50;;;;;;;-139.48;100.00;61774.03;5071638;28;20086;-70
2021/06/09 06:07:56;;;;;;;54.40;37.10;;;;;;;-139.48;100.00;61774.03;5071608;28;20523;-70
2021/06/09 06:10:40;;;;;;;51.17;37.83;;;;;;;-139.48;100.00;61774.03;5071618;28;20098;-70
2021/06/09 06:13:25;;;;;;;46.15;35.72;;;;;;;-139.48;100.00;61774.03;5072501;28;20043;-71
2021/06/09 06:16:13;;;;;;;52.13;35.75;;;;;;;-139.48;100.00;61774.03;5073598;28;20102;-71
2021/06/09 06:18:57;;;;;;;48.15;35.78;;;;;;;-139.48;100.00;61774.03;5071279;28;20133;-71
2021/06/09 06:21:41;;;;;;;36.53;29.98;;;;;;;-139.48;100.00;61774.03;5071302;28;20067;-71
2021/06/09 06:24:26;;;;;;;39.42;30.05;;;;;;;-139.48;100.00;61774.03;5071397;28;20516;-70
2021/06/09 06:27:12;;;;;;;42.47;32.55;;;;;;;-139.48;100.00;61774.03;5071411;28;20048;-70
2021/06/09 06:29:56;;;;;;;41.60;33.58;;;;;;;-139.48;100.00;61774.03;5071170;28;20098;-71
2021/06/09 06:32:41;;;;;;;41.72;31.63;;;;;;;-139.48;100.00;61774.03;5071113;28;20050;-71
2021/06/09 06:35:26;;;;;;;36.85;30.45;;;;;;;-139.48;100.00;61774.03;5071328;28;20378;-70
2021/06/09 06:38:13;;;;;;;34.00;26.08;;;;;;;-139.48;100.00;61774.03;5071639;28;20102;-69
2021/06/09 06:41:00;;;;;;;42.15;33.13;;;;;;;-139.48;100.00;61774.03;5070991;28;20170;-70
2021/06/09 06:43:44;;;;;;;55.08;37.38;;;;;;;-139.48;100.00;61774.03;5071164;28;20093;-71
2021/06/09 06:46:28;;;;;;;51.05;36.50;;;;;;;-139.48;100.00;61774.03;5071078;28;20122;-71
2021/06/09 06:49:13;;;;;;;45.33;34.72;;;;;;;-139.48;100.00;61774.03;5072000;28;20114;-71
2021/06/09 06:51:57;;;;;;;42.78;32.15;;;;;;;-139.48;100.00;61774.03;5071206;28;20532;-71
2021/06/09 06:54:41;;;;;;;39.65;32.70;;;;;;;-139.48;100.00;61774.03;5071091;28;20504;-71
2021/06/09 06:57:29;;;;;;;43.65;33.35;;;;;;;-139.48;100.00;61774.03;5070965;28;20052;-71
2021/06/09 07:00:19;;;;;;;36.15;28.80;;;;;;;-139.48;100.00;61774.03;5072075;28;20060;-71
2021/06/09 07:03:03;;;;;;;39.53;30.35;;;;;;;-139.48;100.00;61774.03;5070850;28;20519;-71
2021/06/09 07:05:47;;;;;;;36.92;30.15;;;;;;;-139.48;100.00;61774.03;5070895;28;20058;-71
2021/06/09 07:08:31;;;;;;;37.40;30.88;;;;;;;-139.48;100.00;61774.03;5071014;28;20052;-71
2021/06/09 07:11:15;;;;;;;45.90;33.25;;;;;;;-139.48;100.00;61774.03;5072220;28;20047;-71
2021/06/09 07:14:00;;;;;;;36.95;29.10;;;;;;;-139.48;100.00;61774.03;5070808;28;20043;-72
2021/06/09 07:16:44;;;;;;;44.28;31.65;;;;;;;-139.48;100.00;61774.03;5072247;28;20097;-72
2021/06/09 07:19:29;;;;;;;37.88;29.92;;;;;;;-139.48;100.00;61774.03;5074681;28;20501;-71
2021/06/09 07:22:14;;;;;;;31.27;27.02;;;;;;;-139.48;100.00;61774.03;5074421;28;20090;-71
2021/06/09 07:24:59;;;;;;;46.85;32.90;;;;;;;-139.48;100.00;61774.03;5074467;28;20094;-71
2021/06/09 07:27:45;;;;;;;37.38;28.60;;;;;;;-139.48;100.00;61774.03;5074565;28;20070;-71
2021/06/09 07:30:32;;;;;;;35.28;29.08;;;;;;;-139.48;100.00;61774.03;5074437;28;20139;-71
2021/06/09 07:33:16;;;;;;;37.45;30.20;;;;;;;-139.48;100.00;61774.03;5074413;28;20416;-72
2021/06/09 07:36:04;;;;;;;34.47;29.80;;;;;;;-139.48;100.00;61774.03;5074393;28;20517;-71
2021/06/09 07:38:51;;;;;;;37.03;30.25;;;;;;;-139.48;100.00;61774.03;5075262;28;20131;-72
2021/06/09 07:41:39;;;;;;;35.05;30.02;;;;;;;-139.48;100.00;61774.03;5073976;28;20043;-71
2021/06/09 07:44:25;;;;;;;35.85;29.65;;;;;;;-139.48;100.00;61774.03;5073887;28;20530;-72
2021/06/09 07:47:11;;;;;;;36.30;30.25;;;;;;;-139.48;100.00;61774.03;5074464;28;20051;-71
2021/06/09 07:49:55;;;;;;;28.27;24.83;;;;;;;-139.48;100.00;61774.03;5073914;28;20052;-71
2021/06/09 07:52:44;;;;;;;37.47;30.48;;;;;;;-139.48;100.00;61774.03;5074024;28;20067;-71
2021/06/09 07:55:28;;;;;;;38.25;29.08;;;;;;;-139.48;100.00;61774.03;5073791;28;20451;-72
2021/06/09 07:58:15;;;;;;;41.35;30.95;;;;;;;-139.48;100.00;61774.03;5073877;28;20051;-71
2021/06/09 08:01:01;;;;;;;36.20;29.95;;;;;;;-139.48;100.00;61774.03;5073442;28;20042;-71
2021/06/09 08:03:45;;;;;;;40.83;29.05;;;;;;;-139.48;100.00;61774.03;5073586;28;20584;-72
2021/06/09 08:06:29;;;;;;;33.53;27.85;;;;;;;-139.48;100.00;61774.03;5074056;28;20051;-72
2021/06/09 08:09:15;;;;;;;31.20;26.00;;;;;;;-139.48;100.00;61774.03;5073529;28;20098;-71
2021/06/09 08:11:59;;;;;;;30.92;25.80;;;;;;;-139.48;100.00;61774.03;5073351;28;20055;-72
2021/06/09 08:14:42;;;;;;;28.65;23.58;;;;;;;-139.48;100.00;61774.03;5073442;28;20150;-71
2021/06/09 08:17:27;;;;;;;28.63;24.23;;;;;;;-139.48;100.00;61774.03;5073584;28;20047;-72
2021/06/09 08:20:17;;;;;;;27.13;23.67;;;;;;;-139.48;100.00;61774.03;5073254;28;20052;-71
2021/06/09 08:23:02;;;;;;;29.27;23.40;;;;;;;-139.48;100.00;61774.03;5073361;28;20085;-72
2021/06/09 08:25:45;;;;;;;29.67;26.02;;;;;;;-139.48;100.00;61774.03;5074536;28;20445;-72
2021/06/09 08:28:34;;;;;;;27.85;22.98;;;;;;;-139.48;100.00;61774.03;5073136;28;20451;-72
2021/06/09 08:31:21;;;;;;;27.00;22.90;;;;;;;-139.48;100.00;61774.03;5073034;28;20129;-72
2021/06/09 08:34:06;;;;;;;25.83;21.40;;;;;;;-139.48;100.00;61774.03;5073201;28;20052;-72
2021/06/09 08:36:51;;;;;;;32.53;24.70;;;;;;;-139.48;100.00;61774.03;5073268;28;20523;-72
2021/06/09 08:39:35;;;;;;;24.33;21.70;;;;;;;-139.48;100.00;61774.03;5073533;28;20083;-72
2021/06/09 08:42:19;;;;;;;23.08;19.75;;;;;;;-139.48;100.00;61774.03;5072871;28;20472;-72
2021/06/09 08:45:04;;;;;;;;;;;;;;;-139.48;100.00;61774.03;5073430;28;20051;-69
2021/06/09 08:47:48;;;;;;;25.23;22.23;;;;;;;-139.48;100.00;61774.03;5073077;28;19970;-73
2021/06/09 08:50:34;;;;;;;26.45;22.27;;;;;;;-139.48;100.00;61774.03;5072567;28;20473;-72
2021/06/09 08:53:22;;;;;;;24.77;21.23;;;;;;;-139.48;100.00;61774.03;5072891;28;20051;-72
2021/06/09 08:56:06;;;;;;;25.95;21.48;;;;;;;-139.48;100.00;61774.03;5072551;28;20055;-71
2021/06/09 08:58:51;;;;;;;;;;;;;;;-139.48;100.00;61774.03;5073710;28;20109;-72
2021/06/09 09:01:35;;;;;;;23.48;20.98;;;;;;;-139.48;100.00;61774.03;5072364;28;20007;-72
2021/06/09 09:04:19;;;;;;;20.95;18.75;;;;;;;-139.48;100.00;61774.03;5072423;28;20496;-72
2021/06/09 09:07:03;;;;;;;;;;;;;;;-139.48;100.00;61774.03;5072733;28;20158;-72
2021/06/09 09:09:47;;;;;;;24.55;21.23;;;;;;;-139.48;100.00;61774.03;5072588;28;19924;-72
2021/06/09 09:12:33;;;;;;;;;;;;;;;-139.48;100.00;61774.03;5073171;28;20109;-72
2021/06/09 09:15:18;;;;;;;23.25;20.27;;;;;;;-139.48;100.00;61774.03;5072491;28;19993;-72
2021/06/09 09:18:04;;;;;;;24.15;20.20;;;;;;;-139.48;100.00;61774.03;5072425;28;20047;-72
2021/06/09 09:20:48;;;;;;;27.80;20.92;;;;;;;-139.48;100.00;61774.03;5072099;28;20105;-72
2021/06/09 09:23:34;;;;;;;24.02;19.58;;;;;;;-139.48;100.00;61774.03;5072067;28;20043;-72
2021/06/09 09:26:38;;;;;;;27.80;21.75;;;;;;;-139.48;100.00;61774.03;5072335;28;20091;-72
2021/06/09 09:29:22;;;;;;;21.00;18.52;;;;;;;-139.48;100.00;61774.03;5073033;28;20051;-72
2021/06/09 09:32:08;;;;;;;19.77;15.48;;;;;;;-139.48;100.00;61774.03;5073166;28;20055;-72
2021/06/09 09:35:03;;;;;;;15.95;14.35;;;;;;;-139.48;100.00;61774.03;5073203;28;20044;-72
2021/06/09 09:37:47;;;;;;;17.75;14.02;;;;;;;-139.48;100.00;61774.03;5072858;28;20527;-71
2021/06/09 09:40:31;;;;;;;;;;;;;;;-139.48;100.00;61774.03;5072074;28;20125;-71
2021/06/09 09:43:15;;;;;;;16.92;15.23;;;;;;;-139.48;100.00;61774.03;5074407;28;19923;-72
2021/06/09 09:46:08;;;;;;;23.40;21.00;;;;;;;-139.48;100.00;61774.03;5072982;28;20075;-72
2021/06/09 09:49:09;;;;;;;23.60;21.08;;;;;;;-139.48;100.00;61774.03;5057715;28;20114;-72
2021/06/09 09:52:01;;;;;;;20.40;18.23;;;;;;;-139.48;100.00;61774.03;5072609;28;20043;-72
2021/06/09 09:54:47;;;;;;;17.33;15.55;;;;;;;-139.48;100.00;61774.03;5071772;28;20126;-72
2021/06/09 09:57:35;;;;;;;18.52;16.50;;;;;;;-139.48;100.00;61774.03;5072130;28;20154;-72
2021/06/09 10:00:33;;;;;;;17.83;14.40;;;;;;;-139.48;100.00;61774.03;5072109;28;20412;-72
2021/06/09 10:03:19;;;;;;;18.02;15.13;;;;;;;-139.48;100.00;61774.03;5071447;28;20121;-73
2021/06/09 10:06:24;;;;;;;13.35;12.05;;;;;;;-139.48;100.00;61774.03;5071768;28;20500;-72
2021/06/09 10:09:17;;;;;;;14.18;12.05;;;;;;;-139.48;100.00;61774.03;5072771;28;20562;-72
2021/06/09 10:12:09;;;;;;;17.08;14.65;;;;;;;-139.48;100.00;61774.03;5071354;28;20117;-70
2021/06/09 10:14:54;;;;;;;14.93;12.82;;;;;;;-139.48;100.00;61774.03;5071686;28;20047;-71
2021/06/09 10:17:38;;;;;;;12.35;10.95;;;;;;;-139.48;100.00;61774.03;5072856;28;20141;-73
2021/06/09 10:20:36;;;;;;;16.30;11.93;;;;;;;-139.48;100.00;61774.03;5071789;28;20047;-71
2021/06/09 10:23:37;;;;;;;12.77;11.07;;;;;;;-139.48;100.00;61774.03;5071247;28;20512;-71
2021/06/09 10:26:21;;;;;;;12.45;11.25;;;;;;;-139.48;100.00;61774.03;5071294;28;20051;-71
2021/06/09 10:29:12;;;;;;;11.00;9.40;;;;;;;-139.48;100.00;61774.03;5071192;28;20063;-70
2021/06/09 10:31:59;;;;;;;11.55;10.35;;;;;;;-139.48;100.00;61774.03;5070612;28;20051;-69
2021/06/09 10:34:45;;;;;;;13.30;12.10;;;;;;;-139.48;100.00;61774.03;5071839;28;20094;-70
2021/06/09 10:37:30;;;;;;;13.73;11.45;;;;;;;-139.48;100.00;61774.03;5070682;28;20055;-71
2021/06/09 10:40:16;;;;;;;22.77;11.25;;;;;;;-139.48;100.00;61774.03;5071675;28;20050;-72
2021/06/09 10:43:01;;;;;;;12.77;11.50;;;;;;;-139.48;100.00;61774.03;5070809;28;20151;-73
2021/06/09 10:45:48;;;;;;;14.27;11.60;;;;;;;-139.48;100.00;61774.03;5071382;28;20106;-73
2021/06/09 10:48:34;;;;;;;13.82;12.40;;;;;;;-139.48;100.00;61774.03;5071200;28;20059;-73
2021/06/09 10:51:18;;;;;;;14.25;12.82;;;;;;;-139.48;100.00;61774.03;5073708;28;20553;-73
2021/06/09 10:54:04;;;;;;;16.02;13.23;;;;;;;-139.48;100.00;61774.03;5075242;28;20087;-73
2021/06/09 10:56:48;;;;;;;13.27;12.05;;;;;;;-139.48;100.00;61774.03;5074878;28;20144;-73
2021/06/09 10:59:33;;;;;;;12.25;10.98;;;;;;;-139.48;100.00;61774.03;5075171;28;20043;-73
2021/06/09 11:02:22;;;;;;;17.08;14.02;;;;;;;-139.48;100.00;61774.03;5076105;28;20105;-73
2021/06/09 11:05:09;;;;;;;14.40;12.95;;;;;;;-139.48;100.00;61774.03;5074963;28;20124;-73
2021/06/09 11:07:53;;;;;;;14.75;12.98;;;;;;;-139.48;100.00;61774.03;5074973;28;20059;-73
2021/06/09 11:10:43;;;;;;;18.55;14.68;;;;;;;-139.48;100.00;61774.03;5074863;28;20071;-73
2021/06/09 11:13:34;;;;;;;15.25;13.65;;;;;;;-139.48;100.00;61774.03;5074836;28;20409;-73
2021/06/09 11:16:18;;;;;;;18.05;16.13;;;;;;;-139.48;100.00;61774.03;5074554;28;20093;-73
2021/06/09 11:19:02;;;;;;;15.98;14.38;;;;;;;-139.48;100.00;61774.03;5074530;28;20512;-73
2021/06/09 11:21:46;;;;;;;23.17;16.33;;;;;;;-139.48;100.00;61774.03;5074521;28;20062;-73
2021/06/09 11:24:30;;;;;;;;;;;;;;;-139.48;100.00;61774.03;5075083;28;20044;-73
2021/06/09 11:27:27;;;;;;;21.30;19.05;;;;;;;-139.48;100.00;61774.03;5074271;28;20003;-73
2021/06/09 11:30:56;;;;;;;19.60;16.27;;;;;;;-139.48;100.00;61774.03;5074814;28;20508;-72
2021/06/09 11:33:42;;;;;;;17.30;14.95;;;;;;;-139.48;100.00;61774.03;5075557;28;20079;-73
2021/06/09 11:36:32;;;;;;;16.13;14.52;;;;;;;-139.48;100.00;61774.03;5074111;28;20067;-72
2021/06/09 11:39:16;;;;;;;15.15;13.65;;;;;;;-139.48;100.00;61774.03;5074288;28;20046;-73
2021/06/09 11:42:00;;;;;;;;;;;;;;;-139.48;100.00;61774.03;5075377;28;20127;-73
2021/06/09 11:44:44;;;;;;;14.70;13.20;;;;;;;-139.48;100.00;61774.03;5074199;28;19920;-73
2021/06/09 11:47:29;;;;;;;15.02;13.55;;;;;;;-139.48;100.00;61774.03;5074181;28;20075;-73
2021/06/09 11:50:30;;;;;;;13.50;12.27;;;;;;;-139.48;100.00;61774.03;5074305;28;20113;-73
2021/06/09 11:53:20;;;;;;;13.60;12.25;;;;;;;-139.48;100.00;61774.03;5074049;28;20051;-71
2021/06/09 11:56:19;;;;;;;13.85;12.40;;;;;;;-139.48;100.00;61774.03;5073964;28;20066;-73
2021/06/09 11:59:05;;;;;;;14.98;13.48;;;;;;;-139.48;100.00;61774.03;5073672;28;20051;-72
2021/06/09 12:01:50;;;;;;;13.23;11.77;;;;;;;-139.48;100.00;61774.03;5073166;28;20051;-73
2021/06/09 12:04:48;;;;;;;13.70;12.38;;;;;;;-139.48;100.00;61774.03;5073528;28;20501;-73
2021/06/09 12:07:34;;;;;;;13.23;11.80;;;;;;;-139.48;100.00;61774.03;5073777;28;20425;-74
2021/06/09 12:10:18;;;;;;;12.32;10.82;;;;;;;-139.48;100.00;61774.03;5073688;28;20055;-71
2021/06/09 12:13:02;;;;;;;12.95;11.45;;;;;;;-139.48;100.00;61774.03;5073738;28;20109;-71
2021/06/09 12:15:45;;;;;;;11.30;10.20;;;;;;;-139.48;100.00;61774.03;5073471;28;20043;-71
2021/06/09 12:18:29;;;;;;;11.27;10.18;;;;;;;-139.48;100.00;61774.03;5073413;28;20043;-72
2021/06/09 12:21:16;;;;;;;11.85;10.70;;;;;;;-139.48;100.00;61774.03;5073500;28;20186;-71
2021/06/09 12:24:00;;;;;;;13.05;10.73;;;;;;;-139.48;100.00;61774.03;5074097;28;20048;-71